createdAt,value
2019-04-20T00:01:29.402Z,98835.60
2019-04-20T00:04:01.016Z,98835.60
2019-04-20T00:06:41.659Z,98842.55
2019-04-20T00:09:14.076Z,98847.95
2019-04-20T00:11:53.626Z,98835.60
2019-04-20T00:14:19.767Z,98848.36
2019-04-20T00:16:50.573Z,98848.36
2019-04-20T00:19:31.343Z,98847.74
2019-04-20T00:22:03.393Z,98846.96
2019-04-20T00:24:38.864Z,98854.53
2019-04-20T00:27:34.119Z,98854.53
2019-04-20T00:30:03.366Z,98855.83
2019-04-20T00:32:34.307Z,98865.37
2019-04-20T00:34:53.862Z,98869.16
2019-04-20T00:37:25.836Z,98862.27
2019-04-20T00:39:57.926Z,98872.34
2019-04-20T00:42:37.070Z,98870.69
2019-04-20T00:45:12.860Z,98883.76
2019-04-20T00:47:47.746Z,98880.44
2019-04-20T00:50:29.902Z,98881.30
2019-04-20T00:52:59.101Z,98881.30
2019-04-20T00:55:19.069Z,98883.93
2019-04-20T00:57:57.022Z,98889.75
2019-04-20T01:00:40.815Z,98884.40
2019-04-20T01:03:18.453Z,98884.40
2019-04-20T01:06:25.023Z,98896.05
2019-04-20T01:08:46.408Z,98892.38
2019-04-20T01:11:26.978Z,98898.94
2019-04-20T01:13:56.089Z,98899.87
2019-04-20T01:16:36.611Z,98899.16
2019-04-20T01:18:58.956Z,98903.34
2019-04-20T01:21:33.459Z,98911.70
2019-04-20T01:24:08.201Z,98911.70
2019-04-20T01:26:44.612Z,98919.21
2019-04-20T01:29:21.558Z,98921.75
2019-04-20T01:32:00.737Z,98925.80
2019-04-20T01:34:32.573Z,98925.80
2019-04-20T01:37:09.309Z,98931.55
2019-04-20T01:39:34.626Z,98931.95
2019-04-20T01:42:00.317Z,98934.53
2019-04-20T01:44:38.511Z,98939.90
2019-04-20T01:47:08.011Z,98949.23
2019-04-20T01:49:39.026Z,98949.84
2019-04-20T01:52:20.094Z,98962.13
2019-04-20T01:55:08.729Z,98959.27
2019-04-20T01:57:45.819Z,98956.34
2019-04-20T02:00:33.328Z,98960.64
2019-04-20T02:03:22.786Z,98966.01
2019-04-20T02:05:59.160Z,98966.01
2019-04-20T02:08:29.394Z,98975.13
2019-04-20T02:11:03.634Z,98975.13
2019-04-20T02:13:42.175Z,98979.19
2019-04-20T02:16:15.800Z,98989.09
2019-04-20T02:18:58.708Z,98989.09
2019-04-20T02:21:27.639Z,98994.67
2019-04-20T02:23:54.644Z,98998.12
2019-04-20T02:26:21.799Z,98996.09
2019-04-20T02:29:18.967Z,98996.09
2019-04-20T02:34:47.870Z,99000.75
2019-04-20T02:37:49.367Z,99003.83
2019-04-20T02:42:50.847Z,99015.92
2019-04-20T02:45:28.918Z,99012.64
2019-04-20T02:47:57.009Z,99012.64
2019-04-20T02:50:34.101Z,99021.53
2019-04-20T02:53:04.838Z,99023.06
2019-04-20T02:58:07.685Z,99031.36
2019-04-20T03:00:33.953Z,99031.72
2019-04-20T03:02:55.927Z,99041.38
2019-04-20T03:05:29.808Z,99041.38
2019-04-20T03:08:09.992Z,99041.02
2019-04-20T03:10:58.541Z,99041.02
2019-04-20T03:13:25.343Z,99042.63
2019-04-20T03:15:56.733Z,99049.34
2019-04-20T03:18:32.031Z,99049.34
2019-04-20T03:21:08.109Z,99045.70
2019-04-20T03:23:47.989Z,99044.91
2019-04-20T03:26:16.188Z,99057.87
2019-04-20T03:29:01.466Z,99063.23
2019-04-20T03:34:55.426Z,99060.94
2019-04-20T03:37:13.387Z,99064.94
2019-04-20T03:39:35.984Z,99064.94
2019-04-20T03:41:56.933Z,99063.20
2019-04-20T03:44:30.758Z,99063.20
2019-04-20T03:47:07.731Z,99060.78
2019-04-20T03:50:01.298Z,99059.27
2019-04-20T03:53:04.439Z,99054.54
2019-04-20T03:58:55.499Z,99058.22
2019-04-20T04:02:06.129Z,99056.27
2019-04-20T04:04:29.889Z,99056.27
2019-04-20T04:06:46.385Z,99048.77
2019-04-20T04:09:24.598Z,99057.25
2019-04-20T04:11:58.492Z,99057.25
2019-04-20T04:14:19.853Z,99061.80
2019-04-20T04:16:57.243Z,99058.59
2019-04-20T04:19:30.240Z,99055.45
2019-04-20T04:22:08.656Z,99053.80
2019-04-20T04:24:46.619Z,99048.75
2019-04-20T04:27:22.868Z,99048.75
2019-04-20T04:29:56.913Z,99044.15
2019-04-20T04:32:49.941Z,99049.23
2019-04-20T04:35:01.694Z,99047.41
2019-04-20T04:37:38.746Z,99045.12
2019-04-20T04:40:22.457Z,99047.13
2019-04-20T04:42:46.541Z,99041.44
2019-04-20T04:45:04.647Z,99048.46
2019-04-20T04:47:34.598Z,99048.46
2019-04-20T04:50:13.063Z,99041.11
2019-04-20T04:52:53.909Z,99034.12
2019-04-20T04:55:25.986Z,99046.11
2019-04-20T04:57:47.452Z,99031.47
2019-04-20T05:00:24.647Z,99031.47
2019-04-20T05:03:00.916Z,99030.77
2019-04-20T05:06:03.824Z,99032.60
2019-04-20T05:08:25.077Z,99028.45
2019-04-20T05:10:49.899Z,99029.38
2019-04-20T05:13:27.714Z,99029.38
2019-04-20T05:16:07.603Z,99024.07
2019-04-20T05:18:59.262Z,99021.42
2019-04-20T05:21:31.422Z,99018.04
2019-04-20T05:24:25.522Z,99014.39
2019-04-20T05:27:33.600Z,99009.36
2019-04-20T05:29:48.721Z,99008.64
2019-04-20T05:32:35.758Z,99004.39
2019-04-20T05:35:27.017Z,98998.12
2019-04-20T05:38:06.979Z,98999.73
2019-04-20T05:40:42.167Z,98994.85
2019-04-20T05:43:33.533Z,98994.41
2019-04-20T05:46:17.835Z,98990.69
2019-04-20T05:48:56.226Z,98988.89
2019-04-20T05:51:35.071Z,98991.05
2019-04-20T05:54:13.864Z,98991.05
2019-04-20T05:56:56.254Z,98982.55
2019-04-20T05:59:40.897Z,98975.89
2019-04-20T06:02:26.250Z,98979.78
2019-04-20T06:07:48.811Z,98973.16
2019-04-20T06:10:32.024Z,98973.16
2019-04-20T06:13:11.191Z,98972.87
2019-04-20T06:16:15.696Z,98972.87
2019-04-20T06:19:18.240Z,98973.64
2019-04-20T06:21:57.543Z,98968.14
2019-04-20T06:24:47.871Z,98971.39
2019-04-20T06:27:24.971Z,98967.39
2019-04-20T06:30:01.141Z,98970.44
2019-04-20T06:33:24.513Z,98964.34
2019-04-20T06:41:46.579Z,98947.87
2019-04-20T06:44:14.798Z,98952.59
2019-04-20T06:47:02.748Z,98946.30
2019-04-20T06:49:35.125Z,98943.78
2019-04-20T06:52:27.637Z,98943.78
2019-04-20T06:55:23.474Z,98936.55
2019-04-20T06:58:12.626Z,98928.99
2019-04-20T07:00:55.339Z,98920.51
2019-04-20T07:03:51.355Z,98920.51
2019-04-20T07:06:35.360Z,98921.13
2019-04-20T07:09:07.535Z,98903.50
2019-04-20T07:11:46.765Z,98909.77
2019-04-20T07:14:25.984Z,98910.19
2019-04-20T07:17:32.993Z,98902.00
2019-04-20T07:20:19.582Z,98902.00
2019-04-20T07:23:18.159Z,98901.55
2019-04-20T07:25:57.781Z,98896.48
2019-04-20T07:28:47.334Z,98899.78
2019-04-20T07:31:20.526Z,98890.13
2019-04-20T07:34:03.721Z,98890.13
2019-04-20T07:37:04.633Z,98877.83
2019-04-20T07:39:33.059Z,98877.01
2019-04-20T07:42:22.966Z,98878.22
2019-04-20T07:45:07.437Z,98878.22
2019-04-20T07:47:45.941Z,98868.61
2019-04-20T07:50:18.901Z,98867.14
2019-04-20T07:53:05.960Z,98861.97
2019-04-20T07:55:52.334Z,98859.04
2019-04-20T07:58:18.157Z,98843.67
2019-04-20T08:01:22.315Z,98843.67
2019-04-20T08:04:08.102Z,98833.10
2019-04-20T08:06:43.365Z,98833.10
2019-04-20T08:09:29.172Z,98820.25
2019-04-20T08:12:27.572Z,98820.25
2019-04-20T08:15:13.339Z,98806.97
2019-04-20T08:17:51.448Z,98804.06
2019-04-20T08:20:27.912Z,98804.06
2019-04-20T08:23:13.020Z,98797.77
2019-04-20T08:25:47.294Z,98796.03
2019-04-20T08:28:39.245Z,98792.93
2019-04-20T08:31:46.228Z,98784.59
2019-04-20T08:34:43.066Z,98770.20
2019-04-20T08:37:17.569Z,98772.30
2019-04-20T08:40:07.455Z,98772.30
2019-04-20T08:42:56.045Z,98759.08
2019-04-20T08:45:34.892Z,98756.30
2019-04-20T08:48:19.187Z,98750.30
2019-04-20T08:50:57.787Z,98748.20
2019-04-20T08:53:43.045Z,98745.13
2019-04-20T08:56:14.000Z,98733.70
2019-04-20T08:58:45.983Z,98733.70
2019-04-20T09:01:29.073Z,98729.52
2019-04-20T09:04:14.401Z,98729.52
2019-04-20T09:07:01.003Z,98718.98
2019-04-20T09:09:49.669Z,98718.98
2019-04-20T09:12:26.845Z,98709.78
2019-04-20T09:14:44.465Z,98709.78
2019-04-20T09:17:34.832Z,98706.23
2019-04-20T09:20:09.575Z,98707.24
2019-04-20T09:22:58.187Z,98707.24
2019-04-20T09:25:50.340Z,98694.82
2019-04-20T09:28:21.567Z,98694.82
2019-04-20T09:30:53.221Z,98690.41
2019-04-20T09:33:55.535Z,98692.00
2019-04-20T09:36:38.862Z,98685.81
2019-04-20T09:39:24.643Z,98676.65
2019-04-20T09:42:01.621Z,98669.92
2019-04-20T09:44:39.866Z,98669.92
2019-04-20T09:47:10.407Z,98658.36
2019-04-20T09:49:54.956Z,98657.61
2019-04-20T09:52:33.433Z,98657.61
2019-04-20T09:55:09.208Z,98659.09
2019-04-20T09:57:43.804Z,98653.99
2019-04-20T10:00:18.323Z,98638.23
2019-04-20T10:02:39.907Z,98636.00
2019-04-20T10:05:17.698Z,98636.00
2019-04-20T10:07:55.924Z,98632.21
2019-04-20T10:10:33.964Z,98630.91
2019-04-20T10:13:02.518Z,98630.91
2019-04-20T10:15:37.439Z,98624.66
2019-04-20T10:18:11.963Z,98623.89
2019-04-20T10:20:45.350Z,98620.31
2019-04-20T10:23:20.455Z,98615.14
2019-04-20T10:25:54.251Z,98609.40
2019-04-20T10:28:27.695Z,98609.40
2019-04-20T10:31:04.504Z,98601.45
2019-04-20T10:33:37.618Z,98596.86
2019-04-20T10:36:17.425Z,98597.77
2019-04-20T10:38:52.630Z,98599.77
2019-04-20T10:41:36.083Z,98599.77
2019-04-20T10:44:07.210Z,98599.05
2019-04-20T10:46:43.117Z,98591.41
2019-04-20T10:49:19.318Z,98589.95
2019-04-20T10:51:53.800Z,98589.95
2019-04-20T10:54:26.693Z,98593.67
2019-04-20T10:56:59.453Z,98586.56
2019-04-20T10:59:31.828Z,98589.26
2019-04-20T11:02:03.960Z,98585.38
2019-04-20T11:04:36.782Z,98589.59
2019-04-20T11:07:08.719Z,98591.14
2019-04-20T11:09:40.788Z,98592.84
2019-04-20T11:12:14.457Z,98588.72
2019-04-20T11:14:46.543Z,98595.08
2019-04-20T11:17:18.619Z,98590.64
2019-04-20T11:19:51.582Z,98591.42
2019-04-20T11:22:24.230Z,98587.13
2019-04-20T11:24:56.562Z,98590.24
2019-04-20T11:27:29.942Z,98583.17
2019-04-20T11:30:02.511Z,98584.47
2019-04-20T11:32:36.040Z,98584.47
2019-04-20T11:35:18.054Z,98588.52
2019-04-20T11:37:42.798Z,98586.85
2019-04-20T11:40:14.995Z,98586.73
2019-04-20T11:42:47.946Z,98586.44
2019-04-20T11:45:20.582Z,98586.44
2019-04-20T11:47:53.702Z,98584.77
2019-04-20T11:50:25.710Z,98593.34
2019-04-20T11:53:01.510Z,98593.34
2019-04-20T11:55:34.107Z,98578.56
2019-04-20T11:58:05.873Z,98578.56
2019-04-20T12:00:52.185Z,98572.43
2019-04-20T12:03:28.128Z,98570.99
2019-04-20T12:05:59.024Z,98583.42
2019-04-20T12:08:29.301Z,98572.25
2019-04-20T12:11:11.058Z,98572.25
2019-04-20T12:13:36.590Z,98578.16
2019-04-20T12:16:08.140Z,98587.55
2019-04-20T12:18:39.960Z,98587.55
2019-04-20T12:21:12.742Z,98584.17
2019-04-20T12:23:44.576Z,98585.47
2019-04-20T12:26:16.974Z,98580.11
2019-04-20T12:28:49.696Z,98587.45
2019-04-20T12:31:24.767Z,98590.89
2019-04-20T12:33:54.941Z,98593.59
2019-04-20T12:36:28.027Z,98589.55
2019-04-20T12:39:01.213Z,98586.09
2019-04-20T12:41:41.521Z,98586.31
2019-04-20T12:44:08.258Z,98588.16
2019-04-20T12:46:39.899Z,98595.30
2019-04-20T12:49:11.995Z,98592.94
2019-04-20T12:51:52.196Z,98592.94
2019-04-20T12:54:18.511Z,98597.06
2019-04-20T12:56:50.705Z,98597.89
2019-04-20T12:59:23.469Z,98591.66
2019-04-20T13:01:55.387Z,98591.66
2019-04-20T13:04:27.350Z,98602.98
2019-04-20T13:07:01.791Z,98604.34
2019-04-20T13:09:40.865Z,98604.34
2019-04-20T13:12:44.570Z,98604.53
2019-04-20T13:15:36.782Z,98604.30
2019-04-20T13:18:09.679Z,98604.30
2019-04-20T13:20:41.949Z,98609.36
2019-04-20T13:23:14.942Z,98606.13
2019-04-20T13:25:47.046Z,98612.30
2019-04-20T13:28:18.955Z,98611.88
2019-04-20T13:30:50.953Z,98609.19
2019-04-20T13:33:23.073Z,98613.20
2019-04-20T13:35:56.729Z,98611.96
2019-04-20T13:38:28.276Z,98611.96
2019-04-20T13:41:00.148Z,98617.81
2019-04-20T13:43:32.510Z,98617.97
2019-04-20T13:46:04.896Z,98617.97
2019-04-20T13:48:37.135Z,98620.09
2019-04-20T13:51:09.850Z,98631.09
2019-04-20T13:53:41.556Z,98628.48
2019-04-20T13:56:14.081Z,98633.31
2019-04-20T13:59:07.885Z,98637.98
2019-04-20T14:02:08.879Z,98634.81
2019-04-20T14:04:54.975Z,98634.81
2019-04-20T14:07:27.180Z,98640.48
2019-04-20T14:09:59.499Z,98637.41
2019-04-20T14:12:37.081Z,98637.91
2019-04-20T14:15:07.378Z,98645.26
2019-04-20T14:17:39.388Z,98642.67
2019-04-20T14:20:15.204Z,98642.67
2019-04-20T14:22:45.404Z,98639.55
2019-04-20T14:25:16.874Z,98639.55
2019-04-20T14:27:48.820Z,98644.45
2019-04-20T14:30:21.125Z,98644.19
2019-04-20T14:32:54.703Z,98649.52
2019-04-20T14:35:27.073Z,98649.52
2019-04-20T14:37:59.678Z,98651.87
2019-04-20T14:40:32.472Z,98647.59
2019-04-20T14:43:04.271Z,98655.91
2019-04-20T14:45:36.655Z,98655.91
2019-04-20T14:48:08.279Z,98656.89
2019-04-20T14:50:41.292Z,98654.93
2019-04-20T14:53:13.736Z,98654.93
2019-04-20T14:55:47.135Z,98663.44
2019-04-20T14:58:41.050Z,98660.95
2019-04-20T15:01:32.596Z,98668.57
2019-04-20T15:04:09.997Z,98671.94
2019-04-20T15:06:39.795Z,98674.91
2019-04-20T15:09:12.841Z,98672.91
2019-04-20T15:11:46.475Z,98686.22
2019-04-20T15:14:18.793Z,98686.22
2019-04-20T15:16:50.947Z,98690.55
2019-04-20T15:19:51.643Z,98688.58
2019-04-20T15:22:51.779Z,98688.58
2019-04-20T15:25:23.767Z,98702.69
2019-04-20T15:27:56.262Z,98708.16
2019-04-20T15:30:28.380Z,98708.16
2019-04-20T15:33:01.078Z,98708.52
2019-04-20T15:35:34.599Z,98714.50
2019-04-20T15:38:07.069Z,98710.17
2019-04-20T15:40:39.428Z,98710.17
2019-04-20T15:43:16.845Z,98707.35
2019-04-20T15:45:45.396Z,98713.83
2019-04-20T15:48:17.451Z,98713.83
2019-04-20T15:50:49.904Z,98710.84
2019-04-20T15:53:21.973Z,98718.48
2019-04-20T15:55:53.795Z,98719.14
2019-04-20T15:58:26.151Z,98725.79
2019-04-20T16:00:58.582Z,98731.02
2019-04-20T16:03:53.116Z,98731.02
2019-04-20T16:06:27.250Z,98739.50
2019-04-20T16:09:00.081Z,98728.71
2019-04-20T16:11:32.804Z,98728.37
2019-04-20T16:14:05.378Z,98724.55
2019-04-20T16:16:37.463Z,98729.68
2019-04-20T16:19:17.903Z,98729.84
2019-04-20T16:21:45.714Z,98727.18
2019-04-20T16:24:19.067Z,98729.13
2019-04-20T16:26:57.691Z,98729.13
2019-04-20T16:29:33.537Z,98733.95
2019-04-20T16:32:06.961Z,98730.92
2019-04-20T16:34:40.207Z,98736.58
2019-04-20T16:37:12.638Z,98731.45
2019-04-20T16:39:44.241Z,98740.38
2019-04-20T16:42:16.190Z,98734.88
2019-04-20T16:44:49.357Z,98732.86
2019-04-20T16:47:22.013Z,98734.95
2019-04-20T16:49:55.045Z,98734.95
2019-04-20T16:52:28.786Z,98731.72
2019-04-20T16:55:02.146Z,98735.17
2019-04-20T16:57:34.037Z,98732.30
2019-04-20T17:00:09.329Z,98729.98
2019-04-20T17:02:42.393Z,98729.89
2019-04-20T17:05:14.290Z,98733.02
2019-04-20T17:07:47.086Z,98727.17
2019-04-20T17:10:20.180Z,98725.46
2019-04-20T17:12:53.700Z,98725.46
2019-04-20T17:15:27.638Z,98719.16
2019-04-20T17:17:59.593Z,98721.72
2019-04-20T17:20:32.839Z,98721.06
2019-04-20T17:23:07.042Z,98721.06
2019-04-20T17:25:39.894Z,98720.08
2019-04-20T17:28:29.382Z,98724.52
2019-04-20T17:31:27.064Z,98719.85
2019-04-20T17:34:17.533Z,98719.85
2019-04-20T17:36:38.113Z,98713.28
2019-04-20T17:39:13.449Z,98713.28
2019-04-20T17:42:00.450Z,98714.53
2019-04-20T17:44:31.445Z,98711.16
2019-04-20T17:47:01.559Z,98707.33
2019-04-20T17:49:34.178Z,98708.45
2019-04-20T17:52:26.467Z,98700.72
2019-04-20T17:54:47.523Z,98704.03
2019-04-20T17:57:19.866Z,98704.03
2019-04-20T17:59:59.722Z,98698.56
2019-04-20T18:03:08.389Z,98698.52
2019-04-20T18:05:58.448Z,98698.52
2019-04-20T18:08:26.715Z,98703.44
2019-04-20T18:10:53.083Z,98693.84
2019-04-20T18:13:21.672Z,98695.81
2019-04-20T18:16:12.454Z,98695.81
2019-04-20T18:18:56.231Z,98690.81
2019-04-20T18:21:28.739Z,98686.83
2019-04-20T18:24:07.142Z,98686.83
2019-04-20T18:26:52.130Z,98691.14
2019-04-20T18:29:32.261Z,98683.77
2019-04-20T18:32:02.000Z,98688.69
2019-04-20T18:34:56.342Z,98683.23
2019-04-20T18:37:30.997Z,98681.77
2019-04-20T18:40:09.606Z,98670.55
2019-04-20T18:42:42.259Z,98670.55
2019-04-20T18:45:30.865Z,98670.50
2019-04-20T18:48:05.887Z,98663.91
2019-04-20T18:50:27.712Z,98661.42
2019-04-20T18:52:54.114Z,98655.86
2019-04-20T18:55:34.229Z,98643.78
2019-04-20T18:57:59.714Z,98642.94
2019-04-20T19:00:36.560Z,98635.43
2019-04-20T19:03:13.295Z,98641.27
2019-04-20T19:05:42.029Z,98641.27
2019-04-20T19:08:17.400Z,98635.31
2019-04-20T19:11:00.363Z,98639.98
2019-04-20T19:13:36.577Z,98640.69
2019-04-20T19:16:28.466Z,98640.69
2019-04-20T19:19:23.521Z,98642.50
2019-04-20T19:21:44.133Z,98641.33
2019-04-20T19:24:18.484Z,98636.61
2019-04-20T19:26:54.654Z,98636.61
2019-04-20T19:29:30.077Z,98636.22
2019-04-20T19:32:11.610Z,98633.52
2019-04-20T19:34:45.395Z,98635.23
2019-04-20T19:37:14.332Z,98635.48
2019-04-20T19:39:53.218Z,98635.48
2019-04-20T19:42:31.236Z,98632.23
2019-04-20T19:45:02.012Z,98626.92
2019-04-20T19:47:44.979Z,98628.35
2019-04-20T19:50:25.134Z,98624.22
2019-04-20T19:52:57.099Z,98630.02
2019-04-20T19:55:23.698Z,98623.48
2019-04-20T19:57:57.965Z,98623.48
2019-04-20T20:00:12.915Z,98613.91
2019-04-20T20:02:46.078Z,98617.83
2019-04-20T20:05:23.016Z,98617.83
2019-04-20T20:07:57.399Z,98616.50
2019-04-20T20:10:33.866Z,98607.56
2019-04-20T20:13:04.112Z,98604.72
2019-04-20T20:15:38.046Z,98604.72
2019-04-20T20:18:27.827Z,98605.06
2019-04-20T20:20:59.581Z,98606.69
2019-04-20T20:23:18.243Z,98600.65
2019-04-20T20:25:51.481Z,98600.65
2019-04-20T20:28:33.633Z,98594.44
2019-04-20T20:31:08.046Z,98590.42
2019-04-20T20:33:45.481Z,98590.42
2019-04-20T20:36:13.973Z,98585.32
2019-04-20T20:38:43.662Z,98592.51
2019-04-20T20:41:20.611Z,98592.51
2019-04-20T20:43:56.549Z,98593.49
2019-04-20T20:46:31.976Z,98593.49
2019-04-20T20:49:28.658Z,98589.23
2019-04-20T20:51:52.790Z,98581.28
2019-04-20T20:54:10.078Z,98579.25
2019-04-20T20:56:46.440Z,98579.25
2019-04-20T20:59:14.445Z,98585.59
2019-04-20T21:01:50.286Z,98585.59
2019-04-20T21:04:15.353Z,98583.89
2019-04-20T21:06:48.616Z,98577.98
2019-04-20T21:09:24.164Z,98583.70
2019-04-20T21:12:01.807Z,98585.23
2019-04-20T21:14:31.757Z,98583.13
2019-04-20T21:17:10.269Z,98583.13
2019-04-20T21:19:56.262Z,98582.11
2019-04-20T21:22:18.557Z,98582.11
2019-04-20T21:24:48.451Z,98581.63
2019-04-20T21:27:21.943Z,98577.98
2019-04-20T21:29:56.385Z,98576.65
2019-04-20T21:32:28.215Z,98576.65
2019-04-20T21:35:03.516Z,98568.99
2019-04-20T21:37:34.720Z,98568.99
2019-04-20T21:40:21.333Z,98568.70
2019-04-20T21:42:49.569Z,98566.87
2019-04-20T21:45:22.820Z,98574.20
2019-04-20T21:47:48.507Z,98574.49
2019-04-20T21:50:35.830Z,98572.72
2019-04-20T21:53:00.741Z,98578.54
2019-04-20T21:55:27.944Z,98568.36
2019-04-20T21:58:00.825Z,98573.52
2019-04-20T22:01:03.891Z,98574.14
2019-04-20T22:03:26.765Z,98574.14
2019-04-20T22:06:08.790Z,98573.97
2019-04-20T22:08:49.765Z,98565.20
2019-04-20T22:11:14.081Z,98573.41
2019-04-20T22:13:47.682Z,98573.41
2019-04-20T22:16:20.795Z,98573.41
2019-04-20T22:19:10.322Z,98570.62
2019-04-20T22:21:45.076Z,98570.62
2019-04-20T22:24:15.238Z,98569.16
2019-04-20T22:26:47.713Z,98569.16
2019-04-20T22:29:08.017Z,98565.28
2019-04-20T22:31:40.291Z,98567.23
2019-04-20T22:34:18.677Z,98567.23
2019-04-20T22:36:48.610Z,98571.41
2019-04-20T22:39:29.291Z,98571.55
2019-04-20T22:42:00.186Z,98570.11
2019-04-20T22:44:32.858Z,98570.11
2019-04-20T22:47:11.963Z,98578.55
2019-04-20T22:49:52.451Z,98578.55
2019-04-20T22:52:29.375Z,98582.80
2019-04-20T22:55:01.393Z,98582.80
2019-04-20T22:57:32.004Z,98582.72
2019-04-20T22:59:59.413Z,98582.72
2019-04-20T23:02:26.589Z,98594.80
2019-04-20T23:04:58.732Z,98589.53
2019-04-20T23:07:30.891Z,98588.41
2019-04-20T23:10:03.799Z,98582.08
2019-04-20T23:12:39.959Z,98590.60
2019-04-20T23:15:12.158Z,98585.91
2019-04-20T23:17:46.856Z,98588.30
2019-04-20T23:20:25.261Z,98589.94
2019-04-20T23:22:53.037Z,98595.45
2019-04-20T23:25:25.118Z,98594.55
2019-04-20T23:28:00.158Z,98594.55
2019-04-20T23:30:34.041Z,98595.33
2019-04-20T23:33:04.388Z,98595.70
2019-04-20T23:35:37.499Z,98605.56
2019-04-20T23:38:15.817Z,98610.33
2019-04-20T23:40:45.763Z,98616.31
2019-04-20T23:43:28.985Z,98612.88
2019-04-20T23:46:33.285Z,98619.28
2019-04-20T23:49:31.794Z,98619.28
2019-04-20T23:52:27.011Z,98624.33
2019-04-20T23:54:37.038Z,98623.81
2019-04-20T23:57:08.087Z,98626.31
2019-04-20T23:59:43.355Z,98626.31
